Airfield :
LOGIN :

Register | Disclaimer

   EN    FR    IT 

 










Legend :    VFR   Marginal VFR   IFR   Intensive IFR   Very Intensive IFR
Visi :
Ceiling :
>= 8 km
>= 3000ft
5 to 8 km
1000 to 3000 ft
1500m to 5 km
500 to 1000 ft
800 to 1500m
200 to 500 ft
< 800m
< 200 ft
Symbols :   Thunderstorms  Fog  Heavy snow  Heavy precipitations  Wind > 20 kt
SIGMETs :     Misc.  Thunderstorms  Icing  Turbulence  Mountain Waves  Volcanic Ashes






- Airport Elevation : 158 ft
- IATA code : QAR


EHDL - Deelen Airbase

CURRENT METAR :
  • 202255Z AUTO 23008KT 170V290 9999 OVC010 11/10 Q1019 GRN

EXPIRED METARs :
  • 202225Z AUTO 24007KT 150V290 9999 FEW010 11/10 Q1019 BLU
  • 202155Z AUTO 24007KT 180V290 9999 BKN015 11/10 Q1019 WHT
  • 202125Z AUTO 25006KT 210V300 9999 FEW010 BKN015 BKN031 11/10 Q1018 WHT
  • 202055Z AUTO 25008KT 190V330 9999 FEW007 OVC031 11/10 Q1018 BLU
  • 202025Z AUTO 25007KT 200V300 9999 SCT006 BKN007 BKN009 11/10 Q1017 YLO

Expired Forecast.



MET'MAP, your aeronautical weather chart ! - Copyright ORBIFLY December 2007 - Disclaimer

ORBIFLY MET'MAP TEAM :

Programming & Development : Alexandra Zaïnal
Original concept : Baudouin d'Aumeries
Technical & hardware support : Manuel Goepfert
Assistance : Marc-Olivier Méhu

Contact : metmap@orbifly.com




SOURCES & CREDITS :

   NOAA